Decatur, GA (30032)

5:18 PM EDT on April 19, 2015 (GMT -0400)
Majestic Acres | | Change Station
CLOSE
Current Station
Personal Weather Station
Location: Avondale Estates, GA
Elevation: 1063 ft
Nearby Weather Stations

Elev 1063 ft 33.77 °N, 84.26 °W | Updated 50 seconds ago

Overcast
Overcast
66.9 °F
Feels Like 66.9 °F
N
2.0
Wind Variable Wind from South
Gusts 3.0 mph

Today
High -- | Low -- °F
--% Chance of Precip.
Yesterday
High -- | Low -- °F
Precip. -- in
7:01 AM 8:11 PM
New Moon, 2% visible
Pressure 29.73 in
Visibility 10.0 miles
Clouds Overcast 900 ft
Dew Point 65 °F
Humidity 94%
Rainfall 0.32 in
Snow Depth Not available.
UV 1 out of 12
Pollen 3.00 out of 12
Air Quality Not available.
Flu Activity Sporadic
SPECI KPDK 192107Z 19009KT 10SM OVC009 20/18 A2973 RMK AO2 T02000183

More Conditions Fewer Conditions

Pressure 29.73 in
Visibility 10.0 miles
Clouds Overcast 900 ft
Dew Point 65 °F
Humidity 94%
Rainfall 0.32 in
Snow Depth Not available.
UV 1 out of 12
Pollen 3.00 out of 12
Air Quality Not available.
Flu Activity Sporadic
SPECI KPDK 192107Z 19009KT 10SM OVC009 20/18 A2973 RMK AO2 T02000183

More Conditions Fewer Conditions

10-Day Weather Forecast

Almanac

Astronomy

Apr. 19, 2015 Rise Set
Actual Time
Civil Twilight
Nautical Twilight
Astronomical Twilight
Moon
Length of Visible Light
Length of Day
Tomorrow will be .
, % of the Moon is Illuminated

Today's Extremes

State Highs State Lows

Community

WunderPhotos

Upload Photos

1,814,985 photos uploaded!

WunderBlogs® & News

Nearby

Air Quality

  Air Quality AQ Index Pollutant
Not available.

Snow Depth

Station Depth Elevation

Earthquake Activity

City Distance Mag. Time & Date
Minimum magnitude displayed is 2.5.

Coastal Water Temperatures

Place Temperature

Stations

Nearby Weather Stations

Station Location Temp. Windchill Dew Point Humidity Wind Precip. Elev Updated Type